Terminal Aerodrome Forecast
Issued by NWS Cleveland, OH

Home | Current Version | Previous Version | Graphics & Text | Print | Product List | Glossary On
Versions: 1 2 3 4 5 6 7 8 9 10 11 12 13 14 15 16 17 18 19 20 21 22 23
719
FTUS41 KCLE 301741
TAFCAK
TAF
KCAK 301741Z 3018/3118 10010G20KT P6SM OVC050
     FM310000 14010KT 6SM -TSRA BR SCT035CB OVC050
     FM310400 17010KT P6SM OVC100
     FM311100 16007KT 3SM -TSRA BR OVC005CB
     FM311500 16007KT 4SM -DZ BR OVC003=

USA.gov is the U.S. government's official web portal to all federal, state and local government web resources and services.